createdAt,value
2022-08-27T00:01:24.316Z,100107.91
2022-08-27T00:03:54.275Z,100116.16
2022-08-27T00:06:22.410Z,100112.75
2022-08-27T00:08:50.370Z,100119.31
2022-08-27T00:13:46.513Z,100112.13
2022-08-27T00:16:16.867Z,100116.16
2022-08-27T00:18:47.859Z,100107.50
2022-08-27T00:21:17.028Z,100114.84
2022-08-27T00:23:44.433Z,100123.72
2022-08-27T00:26:12.230Z,100108.94
2022-08-27T00:28:40.280Z,100121.44
2022-08-27T00:31:07.881Z,100123.50
2022-08-27T00:33:38.920Z,100113.41
2022-08-27T00:36:06.461Z,100116.75
2022-08-27T00:38:35.024Z,100116.56
2022-08-27T00:41:02.912Z,100115.72
2022-08-27T00:43:32.958Z,100115.03
2022-08-27T00:46:07.820Z,100105.13
2022-08-27T00:48:36.565Z,100113.78
2022-08-27T00:51:04.864Z,100112.94
2022-08-27T00:53:33.647Z,100115.25
2022-08-27T00:56:10.716Z,100127.28
2022-08-27T00:58:41.194Z,100120.13
2022-08-27T01:01:11.504Z,100115.25
2022-08-27T01:03:40.609Z,100120.94
2022-08-27T01:06:11.332Z,100105.34
2022-08-27T01:08:53.829Z,100102.81
2022-08-27T01:11:21.929Z,100110.38
2022-08-27T01:14:00.270Z,100118.84
2022-08-27T01:16:34.355Z,100109.13
2022-08-27T01:19:04.895Z,100110.84
2022-08-27T01:21:55.100Z,100100.69
2022-08-27T01:24:28.377Z,100110.84
2022-08-27T01:26:58.220Z,100105.34
2022-08-27T01:29:26.324Z,100112.72
2022-08-27T01:31:53.698Z,100114.19
2022-08-27T01:34:21.121Z,100124.31
2022-08-27T01:36:48.420Z,100103.69
2022-08-27T01:39:16.610Z,100105.19
2022-08-27T01:41:45.263Z,100097.53
2022-08-27T01:44:12.673Z,100116.97
2022-08-27T01:46:40.703Z,100090.78
2022-08-27T01:49:10.648Z,100092.28
2022-08-27T01:51:38.238Z,100106.44
2022-08-27T01:54:06.447Z,100113.41
2022-08-27T01:56:33.885Z,100097.34
2022-08-27T01:59:01.416Z,100107.72
2022-08-27T02:01:28.917Z,100100.31
2022-08-27T02:03:57.014Z,100100.50
2022-08-27T02:06:24.801Z,100095.22
2022-08-27T02:08:54.879Z,100101.97
2022-08-27T02:11:22.247Z,100095.66
2022-08-27T02:13:49.778Z,100102.84
2022-08-27T02:16:17.810Z,100104.91
2022-08-27T02:18:45.131Z,100105.34
2022-08-27T02:21:13.038Z,100112.09
2022-08-27T02:23:42.240Z,100117.16
2022-08-27T02:26:09.565Z,100105.75
2022-08-27T02:28:37.283Z,100111.22
2022-08-27T02:31:05.363Z,100110.38
2022-08-27T02:33:35.660Z,100117.78
2022-08-27T02:36:03.726Z,100115.88
2022-08-27T02:38:33.361Z,100118.81
2022-08-27T02:41:01.081Z,100124.94
2022-08-27T02:43:28.575Z,100121.34
2022-08-27T02:45:56.130Z,100121.53
2022-08-27T02:48:24.815Z,100118.81
2022-08-27T02:50:52.337Z,100114.97
2022-08-27T02:53:20.271Z,100119.63
2022-08-27T02:55:47.985Z,100126.16
2022-08-27T02:58:18.225Z,100127.44
2022-08-27T03:00:45.914Z,100130.84
2022-08-27T03:03:13.726Z,100127.88
2022-08-27T03:05:41.125Z,100119.63
2022-08-27T03:08:08.990Z,100138.84
2022-08-27T03:10:36.440Z,100134.19
2022-08-27T03:13:04.423Z,100129.97
2022-08-27T03:15:32.111Z,100134.84
2022-08-27T03:18:34.742Z,100126.63
2022-08-27T03:21:03.701Z,100138.66
2022-08-27T03:23:35.697Z,100129.41
2022-08-27T03:26:05.404Z,100127.06
2022-08-27T03:28:36.349Z,100132.38
2022-08-27T03:31:07.931Z,100138.28
2022-08-27T03:33:38.789Z,100139.13
2022-08-27T03:36:07.649Z,100136.38
2022-08-27T03:38:35.947Z,100132.56
2022-08-27T03:41:04.630Z,100134.72
2022-08-27T03:43:32.325Z,100133.66
2022-08-27T03:46:01.400Z,100145.06
2022-08-27T03:48:32.060Z,100135.56
2022-08-27T03:51:05.232Z,100139.56
2022-08-27T03:53:33.012Z,100144.63
2022-08-27T03:56:01.862Z,100148.44
2022-08-27T03:58:29.476Z,100143.31
2022-08-27T04:00:56.840Z,100141.22
2022-08-27T04:03:24.331Z,100142.03
2022-08-27T04:05:54.170Z,100150.06
2022-08-27T04:08:23.155Z,100133.97
2022-08-27T04:10:50.811Z,100136.72
2022-08-27T04:13:18.636Z,100143.84
2022-08-27T04:15:52.895Z,100137.75
2022-08-27T04:18:22.408Z,100150.84
2022-08-27T04:20:52.509Z,100139.50
2022-08-27T04:23:23.066Z,100146.72
2022-08-27T04:25:50.950Z,100152.63
2022-08-27T04:28:18.520Z,100152.69
2022-08-27T04:30:47.084Z,100149.91
2022-08-27T04:33:15.087Z,100155.84
2022-08-27T04:35:43.276Z,100150.16
2022-08-27T04:38:10.968Z,100143.81
2022-08-27T04:40:57.598Z,100154.56
2022-08-27T04:43:28.318Z,100145.72
2022-08-27T04:45:57.567Z,100146.56
2022-08-27T04:48:25.885Z,100153.13
2022-08-27T04:50:53.486Z,100147.63
2022-08-27T04:53:30.146Z,100153.31
2022-08-27T04:56:00.946Z,100149.91
2022-08-27T04:58:28.613Z,100141.47
2022-08-27T05:01:01.231Z,100147.16
2022-08-27T05:03:31.550Z,100146.63
2022-08-27T05:06:01.976Z,100142.72
2022-08-27T05:08:30.459Z,100137.19
2022-08-27T05:10:58.013Z,100149.13
2022-08-27T05:13:28.815Z,100134.47
2022-08-27T05:16:14.542Z,100136.25
2022-08-27T05:18:48.238Z,100130.56
2022-08-27T05:21:31.292Z,100139.25
2022-08-27T05:24:04.244Z,100135.81
2022-08-27T05:26:35.484Z,100130.69
2022-08-27T05:29:05.230Z,100132.88
2022-08-27T05:31:33.730Z,100138.53
2022-08-27T05:34:01.803Z,100135.72
2022-08-27T05:36:38.558Z,100130.69
2022-08-27T05:39:15.581Z,100135.91
2022-08-27T05:41:43.293Z,100130.41
2022-08-27T05:44:37.194Z,100119.41
2022-08-27T05:46:58.854Z,100125.22
2022-08-27T05:49:26.474Z,100112.38
2022-08-27T05:51:53.926Z,100120.78
2022-08-27T05:54:21.760Z,100122.19
2022-08-27T05:56:50.124Z,100117.84
2022-08-27T05:59:56.948Z,100117.13
2022-08-27T06:02:25.684Z,100099.41
2022-08-27T06:04:53.853Z,100112.53
2022-08-27T06:07:22.408Z,100113.72
2022-08-27T06:09:50.066Z,100114.56
2022-08-27T06:12:17.582Z,100119.06
2022-08-27T06:14:45.488Z,100116.50
2022-08-27T06:17:13.182Z,100117.09
2022-08-27T06:19:42.591Z,100122.53
2022-08-27T06:22:10.968Z,100128.50
2022-08-27T06:24:40.641Z,100122.41
2022-08-27T06:27:11.424Z,100122.31
2022-08-27T06:29:39.730Z,100106.56
2022-08-27T06:32:08.175Z,100120.78
2022-08-27T06:34:36.771Z,100122.97
2022-08-27T06:37:04.989Z,100123.25
2022-08-27T06:39:32.941Z,100126.94
2022-08-27T06:42:00.904Z,100112.22
2022-08-27T06:44:28.486Z,100107.00
2022-08-27T06:46:56.839Z,100115.72
2022-08-27T06:49:24.526Z,100113.03
2022-08-27T06:51:51.928Z,100107.31
2022-08-27T06:54:20.231Z,100110.34
2022-08-27T06:56:49.637Z,100109.97
2022-08-27T06:59:19.219Z,100102.91
2022-08-27T07:01:49.563Z,100107.25
2022-08-27T07:04:30.778Z,100101.97
2022-08-27T07:07:02.555Z,100106.09
2022-08-27T07:09:32.760Z,100086.75
2022-08-27T07:12:01.564Z,100095.13
2022-08-27T07:14:34.207Z,100100.75
2022-08-27T07:17:05.129Z,100089.25
2022-08-27T07:19:34.512Z,100104.13
2022-08-27T07:22:08.514Z,100089.81
2022-08-27T07:24:40.638Z,100098.72
2022-08-27T07:27:08.883Z,100085.75
2022-08-27T07:29:38.319Z,100084.09
2022-08-27T07:32:06.872Z,100080.47
2022-08-27T07:34:35.435Z,100083.47
2022-08-27T07:37:35.162Z,100078.31
2022-08-27T07:40:12.360Z,100064.84
2022-08-27T07:43:01.942Z,100066.63
2022-08-27T07:45:30.418Z,100060.63
2022-08-27T07:47:58.071Z,100067.59
2022-08-27T07:50:25.701Z,100052.09
2022-08-27T07:52:54.829Z,100053.06
2022-08-27T07:55:22.589Z,100070.47
2022-08-27T07:57:50.212Z,100070.56
2022-08-27T08:00:17.739Z,100059.41
2022-08-27T08:02:47.446Z,100060.50
2022-08-27T08:05:16.835Z,100051.59
2022-08-27T08:07:44.869Z,100044.00
2022-08-27T08:10:12.922Z,100040.28
2022-08-27T08:12:41.870Z,100057.69
2022-08-27T08:15:15.738Z,100055.88
2022-08-27T08:17:44.991Z,100051.19
2022-08-27T08:20:23.988Z,100059.09
2022-08-27T08:22:55.063Z,100060.03
2022-08-27T08:25:23.302Z,100044.88
2022-08-27T08:27:51.629Z,100057.69
2022-08-27T08:30:20.068Z,100045.91
2022-08-27T08:32:48.955Z,100044.38
2022-08-27T08:35:18.177Z,100050.84
2022-08-27T08:37:47.538Z,100057.22
2022-08-27T08:40:35.942Z,100044.31
2022-08-27T08:43:07.345Z,100048.47
2022-08-27T08:45:38.342Z,100047.53
2022-08-27T08:48:12.522Z,100033.81
2022-08-27T08:51:12.009Z,100044.13
2022-08-27T08:53:54.598Z,100038.63
2022-08-27T08:56:32.830Z,100043.00
2022-08-27T08:59:09.654Z,100049.38
2022-08-27T09:01:41.329Z,100046.75
2022-08-27T09:04:18.093Z,100048.53
2022-08-27T09:07:02.784Z,100048.97
2022-08-27T09:09:36.618Z,100052.94
2022-08-27T09:12:15.541Z,100039.41
2022-08-27T09:14:55.586Z,100048.88
2022-08-27T09:17:25.036Z,100035.03
2022-08-27T09:19:54.493Z,100040.13
2022-08-27T09:22:42.035Z,100044.91
2022-08-27T09:25:40.453Z,100034.75
2022-08-27T09:28:32.949Z,100047.50
2022-08-27T09:31:10.633Z,100040.63
2022-08-27T09:33:53.562Z,100045.00
2022-08-27T09:36:24.413Z,100039.69
2022-08-27T09:38:57.935Z,100051.00
2022-08-27T09:41:29.745Z,100038.78
2022-08-27T09:44:02.382Z,100047.34
2022-08-27T09:46:32.342Z,100061.88
2022-08-27T09:49:11.290Z,100052.13
2022-08-27T09:51:41.718Z,100053.28
2022-08-27T09:54:09.792Z,100064.19
2022-08-27T09:56:48.468Z,100059.16
2022-08-27T09:59:24.065Z,100071.41
2022-08-27T10:02:04.376Z,100069.88
2022-08-27T10:04:50.308Z,100073.03
2022-08-27T10:07:42.105Z,100072.72
2022-08-27T10:10:21.796Z,100069.44
2022-08-27T10:13:11.668Z,100077.75
2022-08-27T10:15:51.482Z,100071.88
2022-08-27T10:18:33.106Z,100076.59
2022-08-27T10:21:20.411Z,100065.56
2022-08-27T10:24:21.593Z,100068.78
2022-08-27T10:27:13.517Z,100064.28
2022-08-27T10:29:55.365Z,100065.03
2022-08-27T10:32:46.463Z,100062.00
2022-08-27T10:35:26.994Z,100060.88
2022-08-27T10:38:19.466Z,100061.09
2022-08-27T10:41:12.948Z,100072.38
2022-08-27T10:43:40.460Z,100065.44
2022-08-27T10:46:36.886Z,100065.97
2022-08-27T10:49:32.006Z,100067.31
2022-08-27T10:52:21.363Z,100060.97
2022-08-27T10:54:54.352Z,100063.50
2022-08-27T10:57:45.501Z,100062.72
2022-08-27T11:00:23.069Z,100063.38
2022-08-27T11:02:55.291Z,100061.22
2022-08-27T11:05:33.434Z,100062.81
2022-08-27T11:08:11.829Z,100064.78
2022-08-27T11:11:13.697Z,100059.22
2022-08-27T11:13:51.685Z,100056.97
2022-08-27T11:16:27.704Z,100047.34
2022-08-27T11:19:14.086Z,100059.75
2022-08-27T11:21:51.619Z,100055.34
2022-08-27T11:24:47.902Z,100047.06
2022-08-27T11:27:17.637Z,100055.44
2022-08-27T11:30:08.726Z,100053.00
2022-08-27T11:32:54.200Z,100051.38
2022-08-27T11:35:32.130Z,100056.13
2022-08-27T11:38:27.447Z,100051.09
2022-08-27T11:41:00.271Z,100059.97
2022-08-27T11:43:29.622Z,100056.38
2022-08-27T11:45:59.874Z,100058.84
2022-08-27T11:48:30.977Z,100061.09
2022-08-27T11:51:06.354Z,100061.09
2022-08-27T11:53:41.356Z,100053.25
2022-08-27T11:56:25.981Z,100065.75
2022-08-27T11:58:53.752Z,100057.91
2022-08-27T12:01:30.334Z,100058.97
2022-08-27T12:04:26.183Z,100062.81
2022-08-27T12:07:08.254Z,100065.50
2022-08-27T12:10:01.624Z,100064.31
2022-08-27T12:13:00.801Z,100064.56
2022-08-27T12:15:49.344Z,100065.38
2022-08-27T12:18:32.669Z,100058.56
2022-08-27T12:21:39.907Z,100049.78
2022-08-27T12:24:26.464Z,100050.91
2022-08-27T12:27:20.836Z,100045.31
2022-08-27T12:29:51.134Z,100053.66
2022-08-27T12:32:26.314Z,100047.25
2022-08-27T12:35:08.572Z,100053.09
2022-08-27T12:37:44.526Z,100040.09
2022-08-27T12:40:19.897Z,100045.72
2022-08-27T12:42:50.174Z,100051.38
2022-08-27T12:45:23.576Z,100051.13
2022-08-27T12:47:53.031Z,100044.44
2022-08-27T12:50:26.656Z,100054.72
2022-08-27T12:53:09.737Z,100049.97
2022-08-27T12:56:23.764Z,100046.94
2022-08-27T12:59:22.412Z,100053.88
2022-08-27T13:02:14.735Z,100050.25
2022-08-27T13:04:43.750Z,100042.44
2022-08-27T13:07:11.805Z,100043.28
2022-08-27T13:09:40.113Z,100048.22
2022-08-27T13:12:16.054Z,100053.19
2022-08-27T13:14:43.697Z,100052.63
2022-08-27T13:17:19.648Z,100049.50
2022-08-27T13:19:53.196Z,100046.69
2022-08-27T13:22:26.501Z,100043.31
2022-08-27T13:25:01.093Z,100053.84
2022-08-27T13:27:31.316Z,100049.97
2022-08-27T13:30:02.886Z,100056.63
2022-08-27T13:32:31.225Z,100050.75
2022-08-27T13:35:00.730Z,100063.81
2022-08-27T13:37:34.244Z,100059.91
2022-08-27T13:40:02.315Z,100059.28
2022-08-27T13:42:31.696Z,100059.56
2022-08-27T13:45:04.249Z,100065.09
2022-08-27T13:47:41.158Z,100059.47
2022-08-27T13:53:39.742Z,100060.47
2022-08-27T13:56:09.089Z,100065.13
2022-08-27T13:58:50.703Z,100055.84
2022-08-27T14:01:48.002Z,100053.00
2022-08-27T14:04:23.934Z,100054.03
2022-08-27T14:06:52.299Z,100051.53
2022-08-27T14:09:28.916Z,100055.69
2022-08-27T14:12:06.629Z,100056.75
2022-08-27T14:14:40.223Z,100053.94
2022-08-27T14:17:35.174Z,100045.22
2022-08-27T14:20:04.332Z,100054.56
2022-08-27T14:22:34.363Z,100060.88
2022-08-27T14:25:02.202Z,100063.00
2022-08-27T14:27:29.976Z,100060.69
2022-08-27T14:29:57.834Z,100065.38
2022-08-27T14:32:25.234Z,100071.44
2022-08-27T14:34:53.589Z,100074.16
2022-08-27T14:37:20.997Z,100061.56
2022-08-27T14:39:48.465Z,100065.72
2022-08-27T14:42:17.755Z,100061.47
2022-08-27T14:44:47.557Z,100060.66
2022-08-27T14:47:16.639Z,100057.53
2022-08-27T14:49:45.837Z,100060.59
2022-08-27T14:52:14.052Z,100058.59
2022-08-27T14:54:42.322Z,100054.06
2022-08-27T14:57:10.027Z,100059.03
2022-08-27T14:59:38.600Z,100051.22
2022-08-27T15:02:11.334Z,100055.88
2022-08-27T15:04:39.050Z,100048.28
2022-08-27T15:07:11.271Z,100048.00
2022-08-27T15:09:38.672Z,100055.16
2022-08-27T15:12:06.712Z,100052.56
2022-08-27T15:14:43.543Z,100044.16
2022-08-27T15:17:33.334Z,100039.59
2022-08-27T15:19:58.758Z,100033.41
2022-08-27T15:22:33.841Z,100032.19
2022-08-27T15:25:02.134Z,100026.22
2022-08-27T15:27:38.287Z,100034.63
2022-08-27T15:30:09.048Z,100034.03
2022-08-27T15:32:41.012Z,100038.81
2022-08-27T15:35:14.104Z,100032.88
2022-08-27T15:37:42.698Z,100035.28
2022-08-27T15:40:12.065Z,100032.13
2022-08-27T15:42:41.030Z,100039.47
2022-08-27T15:45:14.685Z,100046.03
2022-08-27T15:47:45.077Z,100036.13
2022-08-27T15:50:13.563Z,100038.94
2022-08-27T15:52:41.740Z,100042.63
2022-08-27T15:55:21.049Z,100054.00
2022-08-27T15:57:54.443Z,100059.19
2022-08-27T16:00:26.256Z,100058.91
2022-08-27T16:02:54.293Z,100053.50
2022-08-27T16:05:22.990Z,100041.03
2022-08-27T16:07:51.198Z,100033.22
2022-08-27T16:10:19.051Z,100036.25
2022-08-27T16:12:49.223Z,100034.91
2022-08-27T16:15:17.699Z,100040.69
2022-08-27T16:17:45.578Z,100039.84
2022-08-27T16:20:15.829Z,100037.81
2022-08-27T16:22:44.635Z,100028.78
2022-08-27T16:25:17.825Z,100024.22
2022-08-27T16:27:48.866Z,100017.84
2022-08-27T16:30:17.692Z,100021.47
2022-08-27T16:32:50.941Z,100024.44
2022-08-27T16:35:20.810Z,100024.72
2022-08-27T16:37:48.670Z,100034.78
2022-08-27T16:40:16.727Z,100036.59
2022-08-27T16:42:50.026Z,100035.66
2022-08-27T16:45:22.743Z,100052.13
2022-08-27T16:48:09.218Z,100042.03
2022-08-27T16:50:37.131Z,100036.13
2022-08-27T16:53:10.191Z,100033.88
2022-08-27T16:55:37.960Z,100034.34
2022-08-27T16:58:19.157Z,100039.50
2022-08-27T17:00:50.399Z,100050.19
2022-08-27T17:03:18.908Z,100060.66
2022-08-27T17:05:46.656Z,100061.09
2022-08-27T17:08:19.672Z,100076.69
2022-08-27T17:10:50.158Z,100085.91
2022-08-27T17:13:21.107Z,100084.97
2022-08-27T17:15:56.329Z,100078.44
2022-08-27T17:18:28.187Z,100088.31
2022-08-27T17:20:57.432Z,100090.44
2022-08-27T17:23:40.818Z,100094.50
2022-08-27T17:26:10.575Z,100095.38
2022-08-27T17:28:40.951Z,100097.88
2022-08-27T17:31:10.190Z,100094.28
2022-08-27T17:33:40.423Z,100092.94
2022-08-27T17:36:09.540Z,100097.19
2022-08-27T17:38:38.954Z,100092.75
2022-08-27T17:41:32.981Z,100100.66
2022-08-27T17:44:17.296Z,100107.72
2022-08-27T17:46:44.939Z,100100.59
2022-08-27T17:49:13.969Z,100104.53
2022-08-27T17:51:41.800Z,100097.59
2022-08-27T17:54:17.581Z,100094.44
2022-08-27T17:56:45.236Z,100083.63
2022-08-27T17:59:12.910Z,100071.53
2022-08-27T18:01:41.912Z,100065.50
2022-08-27T18:04:09.889Z,100071.03
2022-08-27T18:06:38.046Z,100081.03
2022-08-27T18:09:09.505Z,100087.13
2022-08-27T18:11:39.096Z,100095.28
2022-08-27T18:14:12.152Z,100095.81
2022-08-27T18:16:43.048Z,100108.94
2022-08-27T18:19:10.694Z,100101.66
2022-08-27T18:21:46.283Z,100094.09
2022-08-27T18:24:15.451Z,100097.53
2022-08-27T18:26:44.018Z,100099.47
2022-08-27T18:29:13.766Z,100098.38
2022-08-27T18:31:41.961Z,100104.59
2022-08-27T18:34:09.844Z,100103.59
2022-08-27T18:36:37.829Z,100114.50
2022-08-27T18:39:07.412Z,100119.00
2022-08-27T18:41:37.516Z,100129.44
2022-08-27T18:44:05.397Z,100126.38
2022-08-27T18:46:47.699Z,100124.75
2022-08-27T18:49:15.508Z,100125.44
2022-08-27T18:51:49.345Z,100127.81
2022-08-27T18:54:21.237Z,100132.91
2022-08-27T18:56:48.904Z,100133.84
2022-08-27T18:59:21.982Z,100129.22
2022-08-27T19:01:49.799Z,100131.81
2022-08-27T19:04:19.209Z,100134.16
2022-08-27T19:06:47.095Z,100137.16
2022-08-27T19:09:16.253Z,100137.19
2022-08-27T19:11:53.678Z,100136.19
2022-08-27T19:14:21.376Z,100138.09
2022-08-27T19:16:54.051Z,100144.97
2022-08-27T19:19:24.280Z,100141.63
2022-08-27T19:21:52.465Z,100143.19
2022-08-27T19:24:24.826Z,100153.81
2022-08-27T19:26:56.146Z,100148.81
2022-08-27T19:29:24.197Z,100149.91
2022-08-27T19:31:52.162Z,100130.88
2022-08-27T19:34:30.136Z,100137.03
2022-08-27T19:37:01.769Z,100134.72
2022-08-27T19:39:30.015Z,100132.63
2022-08-27T19:41:57.665Z,100138.13
2022-08-27T19:44:25.242Z,100123.75
2022-08-27T19:46:53.348Z,100139.19
2022-08-27T19:49:21.783Z,100146.00
2022-08-27T19:51:49.211Z,100135.47
2022-08-27T19:54:16.728Z,100140.97
2022-08-27T19:56:44.202Z,100137.63
2022-08-27T19:59:20.453Z,100141.88
2022-08-27T20:01:48.935Z,100142.50
2022-08-27T20:04:16.568Z,100145.25
2022-08-27T20:06:44.437Z,100142.50
2022-08-27T20:09:16.098Z,100153.50
2022-08-27T20:11:45.969Z,100156.91
2022-08-27T20:14:13.953Z,100155.00
2022-08-27T20:16:42.527Z,100144.19
2022-08-27T20:19:10.614Z,100139.16
2022-08-27T20:21:38.491Z,100143.38
2022-08-27T20:24:06.490Z,100141.25
2022-08-27T20:26:34.217Z,100137.88
2022-08-27T20:29:02.275Z,100136.84
2022-08-27T20:31:30.405Z,100143.59
2022-08-27T20:33:59.370Z,100136.22
2022-08-27T20:36:29.984Z,100135.78
2022-08-27T20:38:57.746Z,100142.09
2022-08-27T20:41:25.391Z,100143.38
2022-08-27T20:43:53.478Z,100139.75
2022-08-27T20:46:24.356Z,100141.25
2022-08-27T20:48:52.371Z,100145.50
2022-08-27T20:51:19.885Z,100139.19
2022-08-27T20:53:47.450Z,100121.66
2022-08-27T20:56:15.050Z,100121.84
2022-08-27T20:59:01.142Z,100122.69
2022-08-27T21:01:28.788Z,100104.91
2022-08-27T21:03:58.650Z,100122.00
2022-08-27T21:06:26.721Z,100122.63
2022-08-27T21:08:54.245Z,100121.81
2022-08-27T21:11:22.108Z,100122.22
2022-08-27T21:13:56.186Z,100126.22
2022-08-27T21:16:26.793Z,100126.00
2022-08-27T21:18:55.766Z,100117.56
2022-08-27T21:21:23.840Z,100118.59
2022-08-27T21:23:51.645Z,100113.13
2022-08-27T21:26:22.180Z,100115.44
2022-08-27T21:28:49.683Z,100111.41
2022-08-27T21:31:26.957Z,100115.81
2022-08-27T21:33:54.996Z,100111.38
2022-08-27T21:36:22.635Z,100109.84
2022-08-27T21:38:50.346Z,100113.66
2022-08-27T21:41:18.399Z,100121.81
2022-08-27T21:43:46.064Z,100120.97
2022-08-27T21:46:14.197Z,100108.94
2022-08-27T21:48:43.154Z,100110.63
2022-08-27T21:51:24.386Z,100114.28
2022-08-27T21:53:52.403Z,100118.31
2022-08-27T21:56:19.904Z,100113.75
2022-08-27T21:58:47.477Z,100121.94
2022-08-27T22:01:15.267Z,100125.72
2022-08-27T22:03:47.185Z,100114.31
2022-08-27T22:06:15.031Z,100115.59
2022-08-27T22:08:44.217Z,100115.66
2022-08-27T22:11:15.160Z,100110.44
2022-08-27T22:13:50.204Z,100114.91
2022-08-27T22:16:21.404Z,100112.53
2022-08-27T22:18:54.269Z,100121.19
2022-08-27T22:21:25.273Z,100112.31
2022-08-27T22:23:52.768Z,100111.47
2022-08-27T22:26:21.118Z,100119.03
2022-08-27T22:28:48.743Z,100118.63
2022-08-27T22:31:16.663Z,100116.47
2022-08-27T22:33:44.369Z,100122.81
2022-08-27T22:36:11.858Z,100114.38
2022-08-27T22:38:40.001Z,100125.56
2022-08-27T22:41:07.686Z,100127.22
2022-08-27T22:43:36.474Z,100121.34
2022-08-27T22:46:03.878Z,100112.25
2022-08-27T22:48:31.741Z,100113.94
2022-08-27T22:50:59.139Z,100111.81
2022-08-27T22:53:26.633Z,100113.31
2022-08-27T22:55:54.188Z,100115.44
2022-08-27T22:58:24.461Z,100108.22
2022-08-27T23:00:53.423Z,100119.63
2022-08-27T23:03:20.958Z,100107.56
2022-08-27T23:05:48.480Z,100123.16
2022-08-27T23:08:16.098Z,100121.47
2022-08-27T23:10:46.168Z,100109.69
2022-08-27T23:13:13.541Z,100119.41
2022-08-27T23:15:42.269Z,100114.16
2022-08-27T23:18:10.456Z,100112.91
2022-08-27T23:20:37.905Z,100103.44
2022-08-27T23:23:08.069Z,100115.69
2022-08-27T23:25:54.029Z,100124.50
2022-08-27T23:28:21.951Z,100107.00
2022-08-27T23:30:49.694Z,100118.53
2022-08-27T23:33:17.276Z,100114.75
2022-08-27T23:35:50.412Z,100115.13
2022-08-27T23:38:19.337Z,100110.25
2022-08-27T23:40:47.720Z,100112.13
2022-08-27T23:43:15.250Z,100108.97
2022-08-27T23:45:43.579Z,100113.19
2022-08-27T23:48:11.557Z,100117.84
2022-08-27T23:50:40.842Z,100105.81
2022-08-27T23:53:08.724Z,100102.63
2022-08-27T23:55:37.790Z,100104.31
2022-08-27T23:58:06.916Z,100106.38
